createdAt,value
2019-02-28T00:00:13.790Z,11.47
2019-02-28T00:02:45.818Z,12.43
2019-02-28T00:05:17.822Z,8.63
2019-02-28T00:07:50.544Z,8.20
2019-02-28T00:10:22.529Z,10.47
2019-02-28T00:12:54.420Z,12.30
2019-02-28T00:15:29.688Z,10.13
2019-02-28T00:17:59.988Z,11.70
2019-02-28T00:20:32.640Z,10.03
2019-02-28T00:23:04.690Z,8.50
2019-02-28T00:25:38.084Z,10.00
2019-02-28T00:28:10.311Z,7.87
2019-02-28T00:30:42.255Z,9.10
2019-02-28T00:33:14.193Z,11.33
2019-02-28T00:35:46.123Z,7.17
2019-02-28T00:38:18.056Z,8.07
2019-02-28T00:40:49.994Z,9.33
2019-02-28T00:43:22.338Z,10.27
2019-02-28T00:45:55.585Z,9.67
2019-02-28T00:48:27.476Z,9.20
2019-02-28T00:50:59.422Z,12.10
2019-02-28T00:53:31.352Z,10.13
2019-02-28T00:56:03.287Z,7.97
2019-02-28T00:58:35.222Z,7.37
2019-02-28T01:01:08.465Z,9.50
2019-02-28T01:03:41.053Z,8.10
2019-02-28T01:06:13.001Z,9.03
2019-02-28T01:08:44.935Z,10.47
2019-02-28T01:11:17.253Z,9.83
2019-02-28T01:13:49.231Z,13.30
2019-02-28T01:16:21.171Z,9.53
2019-02-28T01:18:53.105Z,8.83
2019-02-28T01:21:25.032Z,7.43
2019-02-28T01:23:56.973Z,8.93
2019-02-28T01:26:30.519Z,7.70
2019-02-28T01:29:02.766Z,7.30
2019-02-28T01:31:34.758Z,10.90
2019-02-28T01:34:06.895Z,7.87
2019-02-28T01:36:38.839Z,9.53
2019-02-28T01:39:11.174Z,8.53
2019-02-28T01:41:45.172Z,8.43
2019-02-28T01:44:16.757Z,7.97
2019-02-28T01:46:49.306Z,8.17
2019-02-28T01:49:21.300Z,10.33
2019-02-28T01:51:53.234Z,11.60
2019-02-28T01:54:27.784Z,9.80
2019-02-28T01:56:59.052Z,8.00
2019-02-28T01:59:30.999Z,10.63
2019-02-28T02:02:06.687Z,9.00
2019-02-28T02:04:36.665Z,8.53
2019-02-28T02:07:09.036Z,9.00
2019-02-28T02:09:42.727Z,8.90
2019-02-28T02:12:14.691Z,10.60
2019-02-28T02:14:46.732Z,8.40
2019-02-28T02:17:18.773Z,11.27
2019-02-28T02:19:52.208Z,8.67
2019-02-28T02:22:24.372Z,9.90
2019-02-28T02:24:59.332Z,6.63
2019-02-28T02:27:30.039Z,8.13
2019-02-28T02:30:01.976Z,8.43
2019-02-28T02:32:38.739Z,12.00
2019-02-28T02:35:08.497Z,8.73
2019-02-28T02:37:40.554Z,10.13
2019-02-28T02:40:13.053Z,11.87
2019-02-28T02:42:48.928Z,10.67
2019-02-28T02:45:18.853Z,7.73
2019-02-28T02:47:51.030Z,9.17
2019-02-28T02:50:22.994Z,8.63
2019-02-28T02:52:54.970Z,8.67
2019-02-28T02:55:28.926Z,8.77
2019-02-28T02:58:00.531Z,8.93
2019-02-28T03:00:32.448Z,7.87
2019-02-28T03:03:05.995Z,8.63
2019-02-28T03:05:38.117Z,10.93
2019-02-28T03:08:10.140Z,9.13
2019-02-28T03:10:42.078Z,10.30
2019-02-28T03:13:14.015Z,10.37
2019-02-28T03:15:45.954Z,9.17
2019-02-28T03:18:20.486Z,11.27
2019-02-28T03:20:51.559Z,10.97
2019-02-28T03:23:24.579Z,11.80
2019-02-28T03:25:56.530Z,13.97
2019-02-28T03:28:32.162Z,10.17
2019-02-28T03:31:11.693Z,7.77
2019-02-28T03:33:35.740Z,11.83
2019-02-28T03:36:07.676Z,11.63
2019-02-28T03:38:39.614Z,9.87
2019-02-28T03:41:16.085Z,7.87
2019-02-28T03:43:45.200Z,11.63
2019-02-28T03:46:17.148Z,11.03
2019-02-28T03:48:49.091Z,10.83
2019-02-28T03:51:21.026Z,9.33
2019-02-28T03:53:55.946Z,11.27
2019-02-28T03:56:28.430Z,9.93
2019-02-28T03:59:00.458Z,12.57
2019-02-28T04:01:32.415Z,9.53
2019-02-28T04:04:10.838Z,9.00
2019-02-28T04:06:40.993Z,9.80
2019-02-28T04:09:13.039Z,9.23
2019-02-28T04:11:44.948Z,9.20
2019-02-28T04:14:16.993Z,8.90
2019-02-28T04:16:52.700Z,8.60
2019-02-28T04:19:23.148Z,8.63
2019-02-28T04:21:55.113Z,11.70
2019-02-28T04:24:27.045Z,9.77
2019-02-28T04:27:06.499Z,9.03
2019-02-28T04:29:32.617Z,10.27
2019-02-28T04:32:04.792Z,8.60
2019-02-28T04:34:36.719Z,9.57
2019-02-28T04:37:09.756Z,7.63
2019-02-28T04:39:41.755Z,8.30
2019-02-28T04:42:13.682Z,9.23
2019-02-28T04:44:45.614Z,7.87
2019-02-28T04:47:17.551Z,9.77
2019-02-28T04:49:49.504Z,8.40
2019-02-28T04:52:21.412Z,5.47
2019-02-28T04:54:53.450Z,10.40
2019-02-28T04:57:25.384Z,9.33
2019-02-28T04:59:57.305Z,9.63
2019-02-28T05:02:29.236Z,9.57
2019-02-28T05:05:01.171Z,9.97
2019-02-28T05:07:33.108Z,10.60
2019-02-28T05:10:05.415Z,9.50
2019-02-28T05:12:39.985Z,13.37
2019-02-28T05:15:11.412Z,8.43
2019-02-28T05:17:43.381Z,6.73
2019-02-28T05:20:15.684Z,10.57
2019-02-28T05:22:47.614Z,11.60
2019-02-28T05:25:19.650Z,8.90
2019-02-28T05:27:51.574Z,8.30
2019-02-28T05:30:23.517Z,6.47
2019-02-28T05:32:55.446Z,9.80
2019-02-28T05:35:27.468Z,10.17
2019-02-28T05:37:59.406Z,11.43
2019-02-28T05:40:31.332Z,10.07
2019-02-28T05:43:03.273Z,11.00
2019-02-28T05:45:35.307Z,11.23
2019-02-28T05:48:07.250Z,10.27
2019-02-28T05:50:39.297Z,10.80
2019-02-28T05:53:11.192Z,16.07
2019-02-28T05:55:43.122Z,14.33
2019-02-28T05:58:17.648Z,8.50
2019-02-28T06:00:48.693Z,9.40
2019-02-28T06:03:20.627Z,15.47
2019-02-28T06:05:52.570Z,12.07
2019-02-28T06:08:24.498Z,10.50
2019-02-28T06:11:00.632Z,11.63
2019-02-28T06:13:30.066Z,12.37
2019-02-28T06:16:02.052Z,12.40
2019-02-28T06:18:33.992Z,12.33
2019-02-28T06:21:05.927Z,10.97
2019-02-28T06:23:40.711Z,12.43
2019-02-28T06:26:11.514Z,8.83
2019-02-28T06:28:43.433Z,17.17
2019-02-28T06:31:15.369Z,9.80
2019-02-28T06:33:47.541Z,10.43
2019-02-28T06:36:19.501Z,11.23
2019-02-28T06:38:54.444Z,11.23
2019-02-28T06:41:25.052Z,11.63
2019-02-28T06:43:56.985Z,15.07
2019-02-28T06:46:28.923Z,10.93
2019-02-28T06:49:05.978Z,11.93
2019-02-28T06:51:34.495Z,12.63
2019-02-28T06:54:07.994Z,16.03
2019-02-28T06:56:40.158Z,13.63
2019-02-28T06:59:12.098Z,12.07
2019-02-28T07:01:45.026Z,15.90
2019-02-28T07:04:16.969Z,17.13
2019-02-28T07:06:48.921Z,16.80
2019-02-28T07:09:20.856Z,15.33
2019-02-28T07:11:54.892Z,15.00
2019-02-28T07:14:26.433Z,14.63
2019-02-28T07:16:58.406Z,13.83
2019-02-28T07:19:30.330Z,13.90
2019-02-28T07:22:02.272Z,15.67
2019-02-28T07:24:37.273Z,15.83
2019-02-28T07:27:08.102Z,14.97
2019-02-28T07:29:42.652Z,16.23
2019-02-28T07:32:13.664Z,15.37
2019-02-28T07:34:45.606Z,10.93
2019-02-28T07:37:19.002Z,9.93
2019-02-28T07:39:51.182Z,11.23
2019-02-28T07:42:23.230Z,12.03
2019-02-28T07:44:57.872Z,12.03
2019-02-28T07:47:29.095Z,16.57
2019-02-28T07:50:01.111Z,22.70
2019-02-28T07:52:33.773Z,15.27
2019-02-28T07:55:06.858Z,12.57
2019-02-28T07:57:38.798Z,19.07
2019-02-28T08:00:18.216Z,13.63
2019-02-28T08:02:49.730Z,19.33
2019-02-28T08:05:21.907Z,18.17
2019-02-28T08:07:53.991Z,20.37
2019-02-28T08:10:26.012Z,16.10
2019-02-28T08:12:58.132Z,12.07
2019-02-28T08:15:30.300Z,13.50
2019-02-28T08:18:02.470Z,17.03
2019-02-28T08:20:34.881Z,15.97
2019-02-28T08:23:07.030Z,16.80
2019-02-28T08:25:39.621Z,12.83
2019-02-28T08:28:12.824Z,13.53
2019-02-28T08:30:44.857Z,12.27
2019-02-28T08:33:17.185Z,16.50
2019-02-28T08:35:49.288Z,14.90
2019-02-28T08:38:21.308Z,13.30
2019-02-28T08:40:53.340Z,11.83
2019-02-28T08:43:27.410Z,10.33
2019-02-28T08:45:59.186Z,14.80
2019-02-28T08:48:32.413Z,10.03
2019-02-28T08:51:04.891Z,12.30
2019-02-28T08:53:37.077Z,11.43
2019-02-28T08:56:11.013Z,10.20
2019-02-28T08:58:42.883Z,12.90
2019-02-28T09:01:14.888Z,8.37
2019-02-28T09:03:46.993Z,9.90
2019-02-28T09:06:19.074Z,11.90
2019-02-28T09:08:51.102Z,21.17
2019-02-28T09:11:23.200Z,11.67
2019-02-28T09:13:55.214Z,11.67
2019-02-28T09:16:27.695Z,9.70
2019-02-28T09:19:00.884Z,11.37
2019-02-28T09:21:33.756Z,11.63
2019-02-28T09:24:06.093Z,12.83
2019-02-28T09:26:38.193Z,14.70
2019-02-28T09:29:10.322Z,14.43
2019-02-28T09:31:42.412Z,16.27
2019-02-28T09:34:14.428Z,14.77
2019-02-28T09:36:46.444Z,13.83
2019-02-28T09:39:19.417Z,12.33
2019-02-28T09:41:52.282Z,15.03
2019-02-28T09:44:24.316Z,14.37
2019-02-28T09:46:56.413Z,18.30
2019-02-28T09:49:28.628Z,15.50
2019-02-28T09:52:03.148Z,19.73
2019-02-28T09:54:34.424Z,17.10
2019-02-28T09:57:06.578Z,17.40
2019-02-28T09:59:38.744Z,18.80
2019-02-28T10:02:10.850Z,16.63
2019-02-28T10:04:42.947Z,18.73
2019-02-28T10:07:15.067Z,17.40
2019-02-28T10:09:49.248Z,15.90
2019-02-28T10:12:20.884Z,21.03
2019-02-28T10:14:52.909Z,16.60
2019-02-28T10:17:28.607Z,15.40
2019-02-28T10:19:58.966Z,12.45
2019-02-28T10:22:31.023Z,13.33
2019-02-28T10:25:03.548Z,15.30
2019-02-28T10:27:37.046Z,16.93
2019-02-28T10:30:15.529Z,15.23
2019-02-28T10:32:46.055Z,24.70
2019-02-28T10:35:18.591Z,25.83
2019-02-28T10:37:50.876Z,18.47
2019-02-28T10:40:24.780Z,20.10
2019-02-28T10:42:57.011Z,17.90
2019-02-28T10:45:29.356Z,17.40
2019-02-28T10:48:03.879Z,18.40
2019-02-28T10:50:35.424Z,18.17
2019-02-28T10:53:07.658Z,21.12
2019-02-28T10:55:39.960Z,13.37
2019-02-28T10:58:12.459Z,14.00
2019-02-28T11:00:46.310Z,18.40
2019-02-28T11:03:19.033Z,19.93
2019-02-28T11:05:54.236Z,16.53
2019-02-28T11:08:24.885Z,14.80
2019-02-28T11:10:56.986Z,13.97
2019-02-28T11:13:32.194Z,12.47
2019-02-28T11:16:02.915Z,11.47
2019-02-28T11:18:36.464Z,19.13
2019-02-28T11:21:09.072Z,16.77
2019-02-28T11:23:41.201Z,15.97
2019-02-28T11:26:13.311Z,14.47
2019-02-28T11:28:45.492Z,17.03
2019-02-28T11:31:19.209Z,14.70
2019-02-28T11:33:52.019Z,15.00
2019-02-28T11:36:24.421Z,15.17
2019-02-28T11:38:56.512Z,12.77
2019-02-28T11:41:28.709Z,13.10
2019-02-28T11:44:00.834Z,19.50
2019-02-28T11:46:35.752Z,10.07
2019-02-28T11:49:06.783Z,16.07
2019-02-28T11:51:38.887Z,13.47
2019-02-28T11:54:12.293Z,16.73
2019-02-28T11:56:44.902Z,12.80
2019-02-28T11:59:17.000Z,13.83
2019-02-28T12:01:49.097Z,12.00
2019-02-28T12:04:21.192Z,12.63
2019-02-28T12:06:53.317Z,17.60
2019-02-28T12:09:25.407Z,17.23
2019-02-28T12:11:57.431Z,11.13
2019-02-28T12:14:30.142Z,21.43
2019-02-28T12:17:02.266Z,16.13
2019-02-28T12:19:34.353Z,15.47
2019-02-28T12:22:09.127Z,17.40
2019-02-28T12:24:40.742Z,18.73
2019-02-28T12:27:12.828Z,19.80
2019-02-28T12:29:45.572Z,21.40
2019-02-28T12:32:18.586Z,15.87
2019-02-28T12:34:50.679Z,17.37
2019-02-28T12:37:23.130Z,20.13
2019-02-28T12:39:55.233Z,12.77
2019-02-28T12:42:27.257Z,10.87
2019-02-28T12:44:59.361Z,15.07
2019-02-28T12:47:34.488Z,13.80
2019-02-28T12:50:07.839Z,14.13
2019-02-28T12:52:39.883Z,13.87
2019-02-28T12:55:14.699Z,19.00
2019-02-28T12:57:46.993Z,14.23
2019-02-28T13:00:25.399Z,13.43
2019-02-28T13:02:57.494Z,18.53
2019-02-28T13:05:29.895Z,17.50
2019-02-28T13:08:02.098Z,16.30
2019-02-28T13:10:34.189Z,12.73
2019-02-28T13:13:07.778Z,10.63
2019-02-28T13:15:40.118Z,10.10
2019-02-28T13:18:12.345Z,11.03
2019-02-28T13:20:44.593Z,15.23
2019-02-28T13:23:17.231Z,17.00
2019-02-28T13:25:49.727Z,20.60
2019-02-28T13:28:23.577Z,18.10
2019-02-28T13:30:55.461Z,13.73
2019-02-28T13:33:27.670Z,12.70
2019-02-28T13:35:59.687Z,16.00
2019-02-28T13:38:31.771Z,11.97
2019-02-28T13:41:03.899Z,13.87
2019-02-28T13:43:36.101Z,15.33
2019-02-28T13:46:08.123Z,17.20
2019-02-28T13:48:40.220Z,17.57
2019-02-28T13:51:12.248Z,16.30
2019-02-28T13:53:44.362Z,15.93
2019-02-28T13:56:18.012Z,15.77
2019-02-28T13:58:53.819Z,14.10
2019-02-28T14:01:24.068Z,20.77
2019-02-28T14:03:56.167Z,17.40
2019-02-28T14:06:28.260Z,18.80
2019-02-28T14:09:00.363Z,15.77
2019-02-28T14:11:32.936Z,18.80
2019-02-28T14:14:06.255Z,17.73
2019-02-28T14:16:39.003Z,18.70
2019-02-28T14:19:11.127Z,19.47
2019-02-28T14:21:43.322Z,24.40
2019-02-28T14:24:15.424Z,21.00
2019-02-28T14:26:49.583Z,18.80
2019-02-28T14:29:21.349Z,21.33
2019-02-28T14:31:53.445Z,21.83
2019-02-28T14:34:26.963Z,16.10
2019-02-28T14:36:59.243Z,18.37
2019-02-28T14:39:31.277Z,17.30
2019-02-28T14:42:06.742Z,14.73
2019-02-28T14:44:38.034Z,16.17
2019-02-28T14:47:10.055Z,17.40
2019-02-28T14:49:43.840Z,21.23
2019-02-28T14:52:15.816Z,20.70
2019-02-28T14:54:47.908Z,23.60
2019-02-28T14:57:19.928Z,17.57
2019-02-28T14:59:52.071Z,24.53
2019-02-28T15:02:27.869Z,18.63
2019-02-28T15:04:57.912Z,16.83
2019-02-28T15:07:29.961Z,21.93
2019-02-28T15:10:02.732Z,22.43
2019-02-28T15:12:34.982Z,19.43
2019-02-28T15:15:10.126Z,17.93
2019-02-28T15:17:42.238Z,17.43
2019-02-28T15:20:14.698Z,17.47
2019-02-28T15:22:46.895Z,20.20
2019-02-28T15:25:19.960Z,31.53
2019-02-28T15:27:52.206Z,19.70
2019-02-28T15:30:30.527Z,18.70
2019-02-28T15:33:01.617Z,20.60
2019-02-28T15:35:33.723Z,19.50
2019-02-28T15:38:09.119Z,16.90
2019-02-28T15:40:40.653Z,19.80
2019-02-28T15:43:17.110Z,19.67
2019-02-28T15:45:46.649Z,16.70
2019-02-28T15:48:18.755Z,21.70
2019-02-28T15:50:51.803Z,18.70
2019-02-28T15:53:24.787Z,15.43
2019-02-28T15:55:56.987Z,18.67
2019-02-28T15:58:29.126Z,15.63
2019-02-28T16:01:01.230Z,17.93
2019-02-28T16:03:33.325Z,17.73
2019-02-28T16:06:05.455Z,21.43
2019-02-28T16:08:37.487Z,19.97
2019-02-28T16:11:09.689Z,14.80
2019-02-28T16:13:41.709Z,19.47
2019-02-28T16:16:13.860Z,17.07
2019-02-28T16:18:47.328Z,17.37
2019-02-28T16:21:19.978Z,20.03
2019-02-28T16:23:52.112Z,18.50
2019-02-28T16:26:24.224Z,16.10
2019-02-28T16:28:56.312Z,17.17
2019-02-28T16:31:28.507Z,15.60
2019-02-28T16:34:08.230Z,17.30
2019-02-28T16:36:34.322Z,20.03
2019-02-28T16:39:08.529Z,17.93
2019-02-28T16:41:40.624Z,15.83
2019-02-28T16:44:12.641Z,21.23
2019-02-28T16:46:46.419Z,16.83
2019-02-28T16:49:18.388Z,10.17
2019-02-28T16:51:50.504Z,19.50
2019-02-28T16:54:23.387Z,19.23
2019-02-28T16:56:56.219Z,19.73
2019-02-28T16:59:31.386Z,18.03
2019-02-28T17:02:02.077Z,19.23
2019-02-28T17:04:34.178Z,26.97
2019-02-28T17:07:09.188Z,15.20
2019-02-28T17:09:44.102Z,19.83
2019-02-28T17:12:37.937Z,18.30
2019-02-28T17:15:19.666Z,12.73
2019-02-28T17:17:57.297Z,16.93
2019-02-28T17:20:29.296Z,17.97
2019-02-28T17:23:02.157Z,16.37
2019-02-28T17:25:34.215Z,13.43
2019-02-28T17:28:25.141Z,15.03
2019-02-28T17:31:14.367Z,12.37
2019-02-28T17:33:48.015Z,18.20
2019-02-28T17:36:20.631Z,12.47
2019-02-28T17:38:52.883Z,15.57
2019-02-28T17:41:24.890Z,13.33
2019-02-28T17:45:03.976Z,21.80
2019-02-28T17:48:30.297Z,15.03
2019-02-28T17:51:43.132Z,23.87
2019-02-28T17:55:09.306Z,16.63
2019-02-28T17:58:14.853Z,14.40
2019-02-28T18:01:39.432Z,16.47
2019-02-28T18:05:00.327Z,12.77
2019-02-28T18:08:19.768Z,19.40
2019-02-28T18:12:10.776Z,14.50
2019-02-28T18:15:26.478Z,16.27
2019-02-28T18:19:01.658Z,16.40
2019-02-28T18:22:22.857Z,15.93
2019-02-28T18:25:48.696Z,14.07
2019-02-28T18:29:18.976Z,17.90
2019-02-28T18:31:53.870Z,20.33
2019-02-28T18:34:28.364Z,16.00
2019-02-28T18:37:00.592Z,17.57
2019-02-28T18:39:32.763Z,17.43
2019-02-28T18:42:04.863Z,17.17
2019-02-28T18:44:37.494Z,17.10
2019-02-28T18:47:10.668Z,21.10
2019-02-28T18:49:42.706Z,15.53
2019-02-28T18:52:14.782Z,20.50
2019-02-28T18:54:46.811Z,17.07
2019-02-28T18:57:18.873Z,20.77
2019-02-28T18:59:50.980Z,22.63
2019-02-28T19:02:23.047Z,21.10
2019-02-28T19:04:55.075Z,17.87
2019-02-28T19:07:27.152Z,21.20
2019-02-28T19:10:00.468Z,20.53
2019-02-28T19:12:32.501Z,19.77
2019-02-28T19:15:12.192Z,18.07
2019-02-28T19:17:44.341Z,20.07
2019-02-28T19:20:16.398Z,16.50
2019-02-28T19:22:48.487Z,18.07
2019-02-28T19:25:20.610Z,19.10
2019-02-28T19:27:52.721Z,17.27
2019-02-28T19:30:24.842Z,20.80
2019-02-28T19:32:57.716Z,18.33
2019-02-28T19:35:29.784Z,18.90
2019-02-28T19:38:01.870Z,15.67
2019-02-28T19:40:33.968Z,18.03
2019-02-28T19:43:06.061Z,18.30
2019-02-28T19:45:39.066Z,18.63
2019-02-28T19:48:11.131Z,20.00
2019-02-28T19:50:43.236Z,19.80
2019-02-28T19:53:15.253Z,20.60
2019-02-28T19:55:47.506Z,21.90
2019-02-28T19:58:19.573Z,21.53
2019-02-28T20:00:52.085Z,20.60
2019-02-28T20:03:24.192Z,18.20
2019-02-28T20:05:56.309Z,15.70
2019-02-28T20:08:28.400Z,14.07
2019-02-28T20:11:00.608Z,11.77
2019-02-28T20:13:32.630Z,13.67
2019-02-28T20:16:04.976Z,11.80
2019-02-28T20:18:37.216Z,9.30
2019-02-28T20:21:09.666Z,10.40
2019-02-28T20:23:41.758Z,12.70
2019-02-28T20:26:13.790Z,11.40
2019-02-28T20:28:45.808Z,8.20
2019-02-28T20:31:18.028Z,7.60
2019-02-28T20:33:50.045Z,7.40
2019-02-28T20:36:22.077Z,8.37
2019-02-28T20:38:54.344Z,6.83
2019-02-28T20:41:26.424Z,7.93
2019-02-28T20:43:58.516Z,8.33
2019-02-28T20:46:30.587Z,8.93
2019-02-28T20:49:02.622Z,6.97
2019-02-28T20:51:34.657Z,8.77
2019-02-28T20:54:07.101Z,7.57
2019-02-28T20:56:39.201Z,5.03
2019-02-28T20:59:11.219Z,11.60
2019-02-28T21:01:43.257Z,7.20
2019-02-28T21:04:15.350Z,6.03
2019-02-28T21:06:47.459Z,7.87
2019-02-28T21:09:20.062Z,9.00
2019-02-28T21:11:52.172Z,6.13
2019-02-28T21:14:24.267Z,6.60
2019-02-28T21:16:56.332Z,7.03
2019-02-28T21:19:28.429Z,6.47
2019-02-28T21:22:02.559Z,6.90
2019-02-28T21:24:34.576Z,7.83
2019-02-28T21:27:06.780Z,6.87
2019-02-28T21:29:38.872Z,5.23
2019-02-28T21:32:10.887Z,8.50
2019-02-28T21:34:42.962Z,6.07
2019-02-28T21:37:15.015Z,6.50
2019-02-28T21:39:47.311Z,8.20
2019-02-28T21:42:19.403Z,7.83
2019-02-28T21:44:51.623Z,5.83
2019-02-28T21:47:24.349Z,9.10
2019-02-28T21:49:56.455Z,7.00
2019-02-28T21:52:28.498Z,5.83
2019-02-28T21:55:00.603Z,7.00
2019-02-28T21:57:32.690Z,9.27
2019-02-28T22:00:05.976Z,8.97
2019-02-28T22:02:38.093Z,7.13
2019-02-28T22:05:12.480Z,6.77
2019-02-28T22:07:44.727Z,6.60
2019-02-28T22:10:17.321Z,6.03
2019-02-28T22:12:49.420Z,7.87
2019-02-28T22:15:21.803Z,6.17
2019-02-28T22:17:53.896Z,7.30
2019-02-28T22:20:26.105Z,9.73
2019-02-28T22:22:58.221Z,5.00
2019-02-28T22:25:30.307Z,7.97
2019-02-28T22:28:02.402Z,10.63
2019-02-28T22:30:56.265Z,12.07
2019-02-28T22:33:55.998Z,10.27
2019-02-28T22:36:31.510Z,8.07
2019-02-28T22:39:04.126Z,6.97
2019-02-28T22:41:36.112Z,9.13
2019-02-28T22:44:09.448Z,10.13
2019-02-28T22:46:41.431Z,11.90
2019-02-28T22:49:13.527Z,14.90
2019-02-28T22:51:45.514Z,11.83
2019-02-28T22:54:17.484Z,8.43
2019-02-28T22:56:49.376Z,6.57
2019-02-28T22:59:21.308Z,6.77
2019-02-28T23:01:54.275Z,5.57
2019-02-28T23:04:26.582Z,6.17
2019-02-28T23:06:58.475Z,6.73
2019-02-28T23:09:30.403Z,5.93
2019-02-28T23:12:02.411Z,11.80
2019-02-28T23:14:34.419Z,10.13
2019-02-28T23:17:06.406Z,7.67
2019-02-28T23:19:38.351Z,9.90
2019-02-28T23:22:10.251Z,4.37
2019-02-28T23:24:42.178Z,6.73
2019-02-28T23:27:20.710Z,4.93
2019-02-28T23:30:35.636Z,8.47
2019-02-28T23:33:18.330Z,10.47
2019-02-28T23:35:51.270Z,5.27
2019-02-28T23:38:23.163Z,8.87
2019-02-28T23:40:58.166Z,9.43
2019-02-28T23:43:30.066Z,7.07
2019-02-28T23:46:02.115Z,10.07
2019-02-28T23:48:34.075Z,6.53
2019-02-28T23:51:06.104Z,9.73
2019-02-28T23:53:38.116Z,11.43
2019-02-28T23:56:10.117Z,10.73
2019-02-28T23:58:42.160Z,8.03
